sensor_id;sensor_type;location;lat;lon;timestamp;temperature;humidity
13245;DHT22;6689;53.400;12.486;2022-08-03T00:02:03;22.20;1.00
13245;DHT22;6689;53.400;12.486;2022-08-03T00:04:33;22.20;1.00
13245;DHT22;6689;53.400;12.486;2022-08-03T00:07:03;22.20;1.00
13245;DHT22;6689;53.400;12.486;2022-08-03T00:09:30;22.20;1.00
13245;DHT22;6689;53.400;12.486;2022-08-03T00:12:03;22.20;1.00
13245;DHT22;6689;53.400;12.486;2022-08-03T00:14:30;22.10;1.00
13245;DHT22;6689;53.400;12.486;2022-08-03T00:17:00;22.10;1.00
13245;DHT22;6689;53.400;12.486;2022-08-03T00:19:28;22.10;1.00
13245;DHT22;6689;53.400;12.486;2022-08-03T00:21:55;22.10;1.00
13245;DHT22;6689;53.400;12.486;2022-08-03T00:24:25;22.00;1.00
13245;DHT22;6689;53.400;12.486;2022-08-03T00:26:53;22.10;1.00
13245;DHT22;6689;53.400;12.486;2022-08-03T00:29:25;22.00;1.00
13245;DHT22;6689;53.400;12.486;2022-08-03T00:31:53;22.00;1.00
13245;DHT22;6689;53.400;12.486;2022-08-03T00:34:20;22.00;1.00
13245;DHT22;6689;53.400;12.486;2022-08-03T00:36:49;22.00;1.00
13245;DHT22;6689;53.400;12.486;2022-08-03T00:39:23;22.00;1.00
13245;DHT22;6689;53.400;12.486;2022-08-03T00:41:49;22.00;1.00
13245;DHT22;6689;53.400;12.486;2022-08-03T00:44:25;22.00;1.00
13245;DHT22;6689;53.400;12.486;2022-08-03T00:46:53;22.00;1.00
13245;DHT22;6689;53.400;12.486;2022-08-03T00:49:20;21.90;1.00
13245;DHT22;6689;53.400;12.486;2022-08-03T00:51:50;21.90;1.00
13245;DHT22;6689;53.400;12.486;2022-08-03T00:54:19;21.90;1.00
13245;DHT22;6689;53.400;12.486;2022-08-03T00:56:49;21.90;1.00
13245;DHT22;6689;53.400;12.486;2022-08-03T00:59:22;21.90;1.00
13245;DHT22;6689;53.400;12.486;2022-08-03T01:01:55;21.90;1.00
13245;DHT22;6689;53.400;12.486;2022-08-03T01:04:24;21.90;1.00
13245;DHT22;6689;53.400;12.486;2022-08-03T01:07:02;21.90;1.00
13245;DHT22;6689;53.400;12.486;2022-08-03T01:09:43;21.90;1.00
13245;DHT22;6689;53.400;12.486;2022-08-03T01:12:20;21.80;1.00
13245;DHT22;6689;53.400;12.486;2022-08-03T01:14:59;21.80;1.00
13245;DHT22;6689;53.400;12.486;2022-08-03T01:17:35;21.80;1.00
13245;DHT22;6689;53.400;12.486;2022-08-03T01:20:13;21.80;1.00
13245;DHT22;6689;53.400;12.486;2022-08-03T01:28:51;21.70;1.00
13245;DHT22;6689;53.400;12.486;2022-08-03T01:31:36;21.70;1.00
13245;DHT22;6689;53.400;12.486;2022-08-03T01:34:12;21.70;1.00
13245;DHT22;6689;53.400;12.486;2022-08-03T01:36:50;21.70;1.00
13245;DHT22;6689;53.400;12.486;2022-08-03T01:39:24;21.70;1.00
13245;DHT22;6689;53.400;12.486;2022-08-03T01:41:55;21.70;1.00
13245;DHT22;6689;53.400;12.486;2022-08-03T01:44:25;21.60;1.00
13245;DHT22;6689;53.400;12.486;2022-08-03T01:47:04;21.60;1.00
13245;DHT22;6689;53.400;12.486;2022-08-03T01:49:37;21.70;1.00
13245;DHT22;6689;53.400;12.486;2022-08-03T01:52:06;21.60;1.00
13245;DHT22;6689;53.400;12.486;2022-08-03T01:54:36;21.70;1.00
13245;DHT22;6689;53.400;12.486;2022-08-03T01:57:09;21.70;1.00
13245;DHT22;6689;53.400;12.486;2022-08-03T01:59:40;21.60;1.00
13245;DHT22;6689;53.400;12.486;2022-08-03T02:02:15;21.60;1.00
13245;DHT22;6689;53.400;12.486;2022-08-03T02:04:49;21.60;1.00
13245;DHT22;6689;53.400;12.486;2022-08-03T02:07:19;21.60;1.00
13245;DHT22;6689;53.400;12.486;2022-08-03T02:09:49;21.50;1.00
13245;DHT22;6689;53.400;12.486;2022-08-03T02:12:19;21.60;1.00
13245;DHT22;6689;53.400;12.486;2022-08-03T02:14:48;21.50;1.00
13245;DHT22;6689;53.400;12.486;2022-08-03T02:17:19;21.50;1.00
13245;DHT22;6689;53.400;12.486;2022-08-03T02:19:49;21.50;1.00
13245;DHT22;6689;53.400;12.486;2022-08-03T02:22:16;21.50;1.00
13245;DHT22;6689;53.400;12.486;2022-08-03T02:24:44;21.50;1.00
13245;DHT22;6689;53.400;12.486;2022-08-03T02:27:20;21.50;1.00
13245;DHT22;6689;53.400;12.486;2022-08-03T02:29:50;21.50;1.00
13245;DHT22;6689;53.400;12.486;2022-08-03T02:32:27;21.50;1.00
13245;DHT22;6689;53.400;12.486;2022-08-03T02:35:00;21.50;1.00
13245;DHT22;6689;53.400;12.486;2022-08-03T02:37:32;21.50;1.00
13245;DHT22;6689;53.400;12.486;2022-08-03T02:40:02;21.50;1.00
13245;DHT22;6689;53.400;12.486;2022-08-03T02:42:37;21.50;1.00
13245;DHT22;6689;53.400;12.486;2022-08-03T02:45:08;21.50;1.00
13245;DHT22;6689;53.400;12.486;2022-08-03T02:47:41;21.50;1.00
13245;DHT22;6689;53.400;12.486;2022-08-03T02:50:25;21.40;1.00
13245;DHT22;6689;53.400;12.486;2022-08-03T02:52:56;21.40;1.00
13245;DHT22;6689;53.400;12.486;2022-08-03T02:55:30;21.40;1.00
13245;DHT22;6689;53.400;12.486;2022-08-03T02:58:02;21.40;1.00
13245;DHT22;6689;53.400;12.486;2022-08-03T03:00:32;21.40;1.00
13245;DHT22;6689;53.400;12.486;2022-08-03T03:03:07;21.40;1.00
13245;DHT22;6689;53.400;12.486;2022-08-03T03:05:40;21.40;1.00
13245;DHT22;6689;53.400;12.486;2022-08-03T03:08:09;21.30;1.00
13245;DHT22;6689;53.400;12.486;2022-08-03T03:10:39;21.30;1.00
13245;DHT22;6689;53.400;12.486;2022-08-03T03:13:07;21.30;1.00
13245;DHT22;6689;53.400;12.486;2022-08-03T03:15:43;21.30;1.00
13245;DHT22;6689;53.400;12.486;2022-08-03T03:18:26;21.30;1.00
13245;DHT22;6689;53.400;12.486;2022-08-03T03:20:57;21.30;1.00
13245;DHT22;6689;53.400;12.486;2022-08-03T03:23:37;21.20;1.00
13245;DHT22;6689;53.400;12.486;2022-08-03T03:26:11;21.20;1.00
13245;DHT22;6689;53.400;12.486;2022-08-03T03:28:40;21.20;1.00
13245;DHT22;6689;53.400;12.486;2022-08-03T03:31:11;21.20;1.00
13245;DHT22;6689;53.400;12.486;2022-08-03T03:33:45;21.20;1.00
13245;DHT22;6689;53.400;12.486;2022-08-03T03:36:12;21.20;1.00
13245;DHT22;6689;53.400;12.486;2022-08-03T03:38:47;21.10;1.00
13245;DHT22;6689;53.400;12.486;2022-08-03T03:41:15;21.20;1.00
13245;DHT22;6689;53.400;12.486;2022-08-03T03:43:42;21.10;1.00
13245;DHT22;6689;53.400;12.486;2022-08-03T03:46:12;21.10;1.00
13245;DHT22;6689;53.400;12.486;2022-08-03T03:48:45;21.10;1.00
13245;DHT22;6689;53.400;12.486;2022-08-03T03:51:12;21.10;1.00
13245;DHT22;6689;53.400;12.486;2022-08-03T03:53:41;21.10;1.00
13245;DHT22;6689;53.400;12.486;2022-08-03T03:56:20;21.10;1.00
13245;DHT22;6689;53.400;12.486;2022-08-03T03:58:47;21.10;1.00
13245;DHT22;6689;53.400;12.486;2022-08-03T04:01:17;21.10;1.00
13245;DHT22;6689;53.400;12.486;2022-08-03T04:03:47;21.10;1.00
13245;DHT22;6689;53.400;12.486;2022-08-03T04:06:16;21.10;1.00
13245;DHT22;6689;53.400;12.486;2022-08-03T04:09:02;21.10;1.00
13245;DHT22;6689;53.400;12.486;2022-08-03T04:11:48;21.10;1.00
13245;DHT22;6689;53.400;12.486;2022-08-03T04:14:21;21.10;1.00
13245;DHT22;6689;53.400;12.486;2022-08-03T04:16:56;21.20;1.00
13245;DHT22;6689;53.400;12.486;2022-08-03T04:19:34;21.20;1.00
13245;DHT22;6689;53.400;12.486;2022-08-03T04:22:06;21.20;1.00
13245;DHT22;6689;53.400;12.486;2022-08-03T04:24:42;21.20;1.00
13245;DHT22;6689;53.400;12.486;2022-08-03T04:27:16;21.20;1.00
13245;DHT22;6689;53.400;12.486;2022-08-03T04:29:47;21.20;1.00
13245;DHT22;6689;53.400;12.486;2022-08-03T04:32:22;21.20;1.00
13245;DHT22;6689;53.400;12.486;2022-08-03T04:34:55;21.20;1.00
13245;DHT22;6689;53.400;12.486;2022-08-03T04:37:28;21.20;1.00
13245;DHT22;6689;53.400;12.486;2022-08-03T04:40:01;21.20;1.00
13245;DHT22;6689;53.400;12.486;2022-08-03T04:42:32;21.20;1.00
13245;DHT22;6689;53.400;12.486;2022-08-03T04:45:07;21.20;1.00
13245;DHT22;6689;53.400;12.486;2022-08-03T04:47:37;21.20;1.00
13245;DHT22;6689;53.400;12.486;2022-08-03T04:50:08;21.20;1.00
13245;DHT22;6689;53.400;12.486;2022-08-03T04:52:37;21.20;1.00
13245;DHT22;6689;53.400;12.486;2022-08-03T04:55:08;21.20;1.00
13245;DHT22;6689;53.400;12.486;2022-08-03T04:57:38;21.20;1.00
13245;DHT22;6689;53.400;12.486;2022-08-03T05:00:07;21.10;1.00
13245;DHT22;6689;53.400;12.486;2022-08-03T05:02:36;21.10;1.00
13245;DHT22;6689;53.400;12.486;2022-08-03T05:05:08;21.10;1.00
13245;DHT22;6689;53.400;12.486;2022-08-03T05:07:37;21.10;1.00
13245;DHT22;6689;53.400;12.486;2022-08-03T05:10:08;21.20;1.00
13245;DHT22;6689;53.400;12.486;2022-08-03T05:12:36;21.30;1.00
13245;DHT22;6689;53.400;12.486;2022-08-03T05:15:07;21.50;1.00
13245;DHT22;6689;53.400;12.486;2022-08-03T05:17:37;21.70;1.00
13245;DHT22;6689;53.400;12.486;2022-08-03T05:20:12;21.90;1.00
13245;DHT22;6689;53.400;12.486;2022-08-03T05:22:42;22.10;1.00
13245;DHT22;6689;53.400;12.486;2022-08-03T05:25:09;22.30;1.00
13245;DHT22;6689;53.400;12.486;2022-08-03T05:27:37;22.50;1.00
13245;DHT22;6689;53.400;12.486;2022-08-03T05:30:08;22.70;1.00
13245;DHT22;6689;53.400;12.486;2022-08-03T05:32:38;22.90;1.00
13245;DHT22;6689;53.400;12.486;2022-08-03T05:35:11;23.00;1.00
13245;DHT22;6689;53.400;12.486;2022-08-03T05:37:38;23.10;1.00
13245;DHT22;6689;53.400;12.486;2022-08-03T05:40:08;23.30;1.00
13245;DHT22;6689;53.400;12.486;2022-08-03T05:42:37;23.40;1.00
13245;DHT22;6689;53.400;12.486;2022-08-03T05:45:07;23.50;1.00
13245;DHT22;6689;53.400;12.486;2022-08-03T05:47:42;23.60;1.00
13245;DHT22;6689;53.400;12.486;2022-08-03T05:50:12;23.70;1.00
13245;DHT22;6689;53.400;12.486;2022-08-03T05:52:39;23.80;1.00
13245;DHT22;6689;53.400;12.486;2022-08-03T05:55:11;23.90;1.00
13245;DHT22;6689;53.400;12.486;2022-08-03T05:57:39;24.00;1.00
13245;DHT22;6689;53.400;12.486;2022-08-03T06:00:13;24.10;1.00
13245;DHT22;6689;53.400;12.486;2022-08-03T06:02:44;24.20;1.00
13245;DHT22;6689;53.400;12.486;2022-08-03T06:05:18;24.30;1.00
13245;DHT22;6689;53.400;12.486;2022-08-03T06:07:46;24.40;1.00
13245;DHT22;6689;53.400;12.486;2022-08-03T06:10:13;24.50;1.00
13245;DHT22;6689;53.400;12.486;2022-08-03T06:12:42;24.50;1.00
13245;DHT22;6689;53.400;12.486;2022-08-03T06:15:12;24.70;1.00
13245;DHT22;6689;53.400;12.486;2022-08-03T06:17:48;24.80;1.00
13245;DHT22;6689;53.400;12.486;2022-08-03T06:20:22;24.80;1.00
13245;DHT22;6689;53.400;12.486;2022-08-03T06:22:49;25.00;1.00
13245;DHT22;6689;53.400;12.486;2022-08-03T06:25:17;25.00;1.00
13245;DHT22;6689;53.400;12.486;2022-08-03T06:27:48;25.10;1.00
13245;DHT22;6689;53.400;12.486;2022-08-03T06:30:17;25.30;1.00
13245;DHT22;6689;53.400;12.486;2022-08-03T06:32:44;25.40;1.00
13245;DHT22;6689;53.400;12.486;2022-08-03T06:35:14;25.50;1.00
13245;DHT22;6689;53.400;12.486;2022-08-03T06:37:53;25.50;1.00
13245;DHT22;6689;53.400;12.486;2022-08-03T06:40:24;25.60;1.00
13245;DHT22;6689;53.400;12.486;2022-08-03T06:42:59;25.80;1.00
13245;DHT22;6689;53.400;12.486;2022-08-03T06:45:29;25.90;1.00
13245;DHT22;6689;53.400;12.486;2022-08-03T06:48:04;26.10;1.00
13245;DHT22;6689;53.400;12.486;2022-08-03T06:50:38;26.20;1.00
13245;DHT22;6689;53.400;12.486;2022-08-03T06:53:09;26.40;1.00
13245;DHT22;6689;53.400;12.486;2022-08-03T06:55:38;26.50;1.00
13245;DHT22;6689;53.400;12.486;2022-08-03T06:58:05;26.70;1.00
13245;DHT22;6689;53.400;12.486;2022-08-03T07:00:38;26.80;1.00
13245;DHT22;6689;53.400;12.486;2022-08-03T07:03:04;26.90;1.00
13245;DHT22;6689;53.400;12.486;2022-08-03T07:05:32;27.10;1.00
13245;DHT22;6689;53.400;12.486;2022-08-03T07:08:03;27.20;1.00
13245;DHT22;6689;53.400;12.486;2022-08-03T07:10:34;27.30;1.00
13245;DHT22;6689;53.400;12.486;2022-08-03T07:13:04;27.40;1.00
13245;DHT22;6689;53.400;12.486;2022-08-03T07:15:34;27.50;1.00
13245;DHT22;6689;53.400;12.486;2022-08-03T07:18:03;27.60;1.00
13245;DHT22;6689;53.400;12.486;2022-08-03T07:20:30;27.70;1.00
13245;DHT22;6689;53.400;12.486;2022-08-03T07:22:59;27.80;1.00
13245;DHT22;6689;53.400;12.486;2022-08-03T07:25:33;27.90;1.00
13245;DHT22;6689;53.400;12.486;2022-08-03T07:28:00;28.10;1.00
13245;DHT22;6689;53.400;12.486;2022-08-03T07:30:30;28.10;1.00
13245;DHT22;6689;53.400;12.486;2022-08-03T07:33:00;28.20;1.00
13245;DHT22;6689;53.400;12.486;2022-08-03T07:35:28;28.20;1.00
13245;DHT22;6689;53.400;12.486;2022-08-03T07:37:54;28.30;1.00
13245;DHT22;6689;53.400;12.486;2022-08-03T07:40:23;28.30;1.00
13245;DHT22;6689;53.400;12.486;2022-08-03T07:42:53;28.50;1.00
13245;DHT22;6689;53.400;12.486;2022-08-03T07:45:20;28.50;1.00
13245;DHT22;6689;53.400;12.486;2022-08-03T07:47:49;28.60;1.00
13245;DHT22;6689;53.400;12.486;2022-08-03T07:50:17;28.70;1.00
13245;DHT22;6689;53.400;12.486;2022-08-03T07:52:44;28.90;1.00
13245;DHT22;6689;53.400;12.486;2022-08-03T07:55:15;29.00;1.00
13245;DHT22;6689;53.400;12.486;2022-08-03T07:57:44;29.00;1.00
13245;DHT22;6689;53.400;12.486;2022-08-03T08:00:18;29.10;1.00
13245;DHT22;6689;53.400;12.486;2022-08-03T08:02:45;29.30;1.00
13245;DHT22;6689;53.400;12.486;2022-08-03T08:05:15;29.40;1.00
13245;DHT22;6689;53.400;12.486;2022-08-03T08:07:44;29.50;99.90
13245;DHT22;6689;53.400;12.486;2022-08-03T08:10:13;29.60;1.00
13245;DHT22;6689;53.400;12.486;2022-08-03T08:12:41;29.70;99.90
13245;DHT22;6689;53.400;12.486;2022-08-03T08:15:10;29.70;99.90
13245;DHT22;6689;53.400;12.486;2022-08-03T08:17:43;29.80;1.40
13245;DHT22;6689;53.400;12.486;2022-08-03T08:20:16;29.80;99.90
13245;DHT22;6689;53.400;12.486;2022-08-03T08:22:44;30.00;99.90
13245;DHT22;6689;53.400;12.486;2022-08-03T08:25:16;30.10;99.90
13245;DHT22;6689;53.400;12.486;2022-08-03T08:27:48;30.20;99.90
13245;DHT22;6689;53.400;12.486;2022-08-03T08:30:19;30.30;99.90
13245;DHT22;6689;53.400;12.486;2022-08-03T08:32:50;30.30;99.90
13245;DHT22;6689;53.400;12.486;2022-08-03T08:35:19;30.40;99.90
13245;DHT22;6689;53.400;12.486;2022-08-03T08:37:46;30.50;99.90
13245;DHT22;6689;53.400;12.486;2022-08-03T08:40:14;30.50;99.90
13245;DHT22;6689;53.400;12.486;2022-08-03T08:42:44;30.70;99.90
13245;DHT22;6689;53.400;12.486;2022-08-03T08:45:13;30.80;99.90
13245;DHT22;6689;53.400;12.486;2022-08-03T08:47:44;30.90;99.90
13245;DHT22;6689;53.400;12.486;2022-08-03T08:50:16;31.00;99.90
13245;DHT22;6689;53.400;12.486;2022-08-03T08:52:47;31.10;99.90
13245;DHT22;6689;53.400;12.486;2022-08-03T08:55:20;31.10;99.90
13245;DHT22;6689;53.400;12.486;2022-08-03T08:58:00;31.20;99.90
13245;DHT22;6689;53.400;12.486;2022-08-03T09:00:34;31.30;99.90
13245;DHT22;6689;53.400;12.486;2022-08-03T09:03:03;31.40;99.90
13245;DHT22;6689;53.400;12.486;2022-08-03T09:05:34;31.50;99.90
13245;DHT22;6689;53.400;12.486;2022-08-03T09:08:04;31.50;99.90
13245;DHT22;6689;53.400;12.486;2022-08-03T09:10:34;31.60;99.90
13245;DHT22;6689;53.400;12.486;2022-08-03T09:13:01;31.70;99.90
13245;DHT22;6689;53.400;12.486;2022-08-03T09:15:34;31.70;99.90
13245;DHT22;6689;53.400;12.486;2022-08-03T09:18:05;31.80;99.90
13245;DHT22;6689;53.400;12.486;2022-08-03T09:20:35;31.90;99.90
13245;DHT22;6689;53.400;12.486;2022-08-03T09:23:10;32.00;99.90
13245;DHT22;6689;53.400;12.486;2022-08-03T09:25:41;32.10;99.90
13245;DHT22;6689;53.400;12.486;2022-08-03T09:28:11;32.00;99.90
13245;DHT22;6689;53.400;12.486;2022-08-03T09:30:57;32.00;99.90
13245;DHT22;6689;53.400;12.486;2022-08-03T09:33:30;32.10;99.90
13245;DHT22;6689;53.400;12.486;2022-08-03T09:36:05;32.00;99.90
13245;DHT22;6689;53.400;12.486;2022-08-03T09:38:34;32.20;99.90
13245;DHT22;6689;53.400;12.486;2022-08-03T09:41:01;32.10;99.90
13245;DHT22;6689;53.400;12.486;2022-08-03T09:43:45;32.30;99.90
13245;DHT22;6689;53.400;12.486;2022-08-03T09:46:14;32.10;99.90
13245;DHT22;6689;53.400;12.486;2022-08-03T09:48:46;32.20;99.90
13245;DHT22;6689;53.400;12.486;2022-08-03T09:51:26;32.20;99.90
13245;DHT22;6689;53.400;12.486;2022-08-03T09:53:55;32.10;99.90
13245;DHT22;6689;53.400;12.486;2022-08-03T09:56:40;32.10;99.90
13245;DHT22;6689;53.400;12.486;2022-08-03T09:59:10;32.10;99.90
13245;DHT22;6689;53.400;12.486;2022-08-03T10:01:40;32.30;99.90
13245;DHT22;6689;53.400;12.486;2022-08-03T10:04:16;32.20;99.90
13245;DHT22;6689;53.400;12.486;2022-08-03T10:07:05;32.30;99.90
13245;DHT22;6689;53.400;12.486;2022-08-03T10:09:39;32.30;99.90
13245;DHT22;6689;53.400;12.486;2022-08-03T10:12:19;32.40;99.90
13245;DHT22;6689;53.400;12.486;2022-08-03T10:14:47;32.50;99.90
13245;DHT22;6689;53.400;12.486;2022-08-03T10:17:15;32.70;99.90
13245;DHT22;6689;53.400;12.486;2022-08-03T10:19:48;32.70;99.90
13245;DHT22;6689;53.400;12.486;2022-08-03T10:22:21;32.70;99.90
13245;DHT22;6689;53.400;12.486;2022-08-03T10:24:54;32.80;99.90
13245;DHT22;6689;53.400;12.486;2022-08-03T10:27:28;32.70;99.90
13245;DHT22;6689;53.400;12.486;2022-08-03T10:30:00;32.70;99.90
13245;DHT22;6689;53.400;12.486;2022-08-03T10:32:33;32.80;99.90
13245;DHT22;6689;53.400;12.486;2022-08-03T10:35:08;32.80;99.90
13245;DHT22;6689;53.400;12.486;2022-08-03T10:37:41;32.90;99.90
13245;DHT22;6689;53.400;12.486;2022-08-03T10:40:16;33.10;99.90
13245;DHT22;6689;53.400;12.486;2022-08-03T10:42:50;33.30;99.90
13245;DHT22;6689;53.400;12.486;2022-08-03T10:45:20;33.30;99.90
13245;DHT22;6689;53.400;12.486;2022-08-03T10:47:51;33.50;99.90
13245;DHT22;6689;53.400;12.486;2022-08-03T10:50:22;33.50;99.90
13245;DHT22;6689;53.400;12.486;2022-08-03T10:52:58;33.50;99.90
13245;DHT22;6689;53.400;12.486;2022-08-03T10:55:32;33.70;99.90
13245;DHT22;6689;53.400;12.486;2022-08-03T10:58:56;33.60;99.90
13245;DHT22;6689;53.400;12.486;2022-08-03T11:01:54;33.80;99.90
13245;DHT22;6689;53.400;12.486;2022-08-03T11:04:27;33.80;99.90
13245;DHT22;6689;53.400;12.486;2022-08-03T11:07:18;34.00;99.90
13245;DHT22;6689;53.400;12.486;2022-08-03T11:09:57;34.10;99.90
13245;DHT22;6689;53.400;12.486;2022-08-03T11:12:30;34.20;99.90
13245;DHT22;6689;53.400;12.486;2022-08-03T11:15:00;34.20;99.90
13245;DHT22;6689;53.400;12.486;2022-08-03T11:17:35;34.10;99.90
13245;DHT22;6689;53.400;12.486;2022-08-03T11:20:07;34.30;99.90
13245;DHT22;6689;53.400;12.486;2022-08-03T11:22:48;34.30;99.90
13245;DHT22;6689;53.400;12.486;2022-08-03T11:25:27;34.50;99.90
13245;DHT22;6689;53.400;12.486;2022-08-03T11:28:25;34.50;99.90
13245;DHT22;6689;53.400;12.486;2022-08-03T11:34:09;34.70;99.90
13245;DHT22;6689;53.400;12.486;2022-08-03T11:39:54;34.80;99.90
13245;DHT22;6689;53.400;12.486;2022-08-03T11:42:43;34.80;99.90
13245;DHT22;6689;53.400;12.486;2022-08-03T11:45:24;34.80;99.90
13245;DHT22;6689;53.400;12.486;2022-08-03T11:48:13;34.60;99.90
13245;DHT22;6689;53.400;12.486;2022-08-03T11:50:56;34.70;99.90
13245;DHT22;6689;53.400;12.486;2022-08-03T11:53:31;34.70;99.90
13245;DHT22;6689;53.400;12.486;2022-08-03T11:56:02;34.70;99.90
13245;DHT22;6689;53.400;12.486;2022-08-03T12:05:06;35.00;99.90
13245;DHT22;6689;53.400;12.486;2022-08-03T12:07:45;35.10;99.90
13245;DHT22;6689;53.400;12.486;2022-08-03T12:10:13;35.10;99.90
13245;DHT22;6689;53.400;12.486;2022-08-03T12:12:41;34.90;99.90
13245;DHT22;6689;53.400;12.486;2022-08-03T12:15:24;35.00;99.90
13245;DHT22;6689;53.400;12.486;2022-08-03T12:17:56;35.00;99.90
13245;DHT22;6689;53.400;12.486;2022-08-03T12:21:02;35.00;99.90
13245;DHT22;6689;53.400;12.486;2022-08-03T12:23:38;34.90;99.90
13245;DHT22;6689;53.400;12.486;2022-08-03T12:26:08;34.80;99.90
13245;DHT22;6689;53.400;12.486;2022-08-03T12:28:36;34.80;99.90
13245;DHT22;6689;53.400;12.486;2022-08-03T12:31:17;34.80;99.90
13245;DHT22;6689;53.400;12.486;2022-08-03T12:34:02;34.80;99.90
13245;DHT22;6689;53.400;12.486;2022-08-03T12:39:48;35.00;99.90
13245;DHT22;6689;53.400;12.486;2022-08-03T12:42:34;35.00;99.90
13245;DHT22;6689;53.400;12.486;2022-08-03T12:45:23;35.10;99.90
13245;DHT22;6689;53.400;12.486;2022-08-03T12:48:07;35.10;99.90
13245;DHT22;6689;53.400;12.486;2022-08-03T12:50:49;35.20;99.90
13245;DHT22;6689;53.400;12.486;2022-08-03T12:53:32;35.20;99.90
13245;DHT22;6689;53.400;12.486;2022-08-03T12:59:34;35.50;99.90
13245;DHT22;6689;53.400;12.486;2022-08-03T13:02:19;35.50;99.90
13245;DHT22;6689;53.400;12.486;2022-08-03T13:05:08;35.60;99.90
13245;DHT22;6689;53.400;12.486;2022-08-03T13:07:40;35.60;99.90
13245;DHT22;6689;53.400;12.486;2022-08-03T13:10:26;35.70;99.90
13245;DHT22;6689;53.400;12.486;2022-08-03T13:13:07;35.80;99.90
13245;DHT22;6689;53.400;12.486;2022-08-03T13:16:05;35.90;99.90
13245;DHT22;6689;53.400;12.486;2022-08-03T13:18:50;35.90;99.90
13245;DHT22;6689;53.400;12.486;2022-08-03T13:21:29;35.60;99.90
13245;DHT22;6689;53.400;12.486;2022-08-03T13:23:57;35.60;99.90
13245;DHT22;6689;53.400;12.486;2022-08-03T13:26:35;35.60;99.90
13245;DHT22;6689;53.400;12.486;2022-08-03T13:29:16;35.50;99.90
13245;DHT22;6689;53.400;12.486;2022-08-03T13:35:07;35.60;99.90
13245;DHT22;6689;53.400;12.486;2022-08-03T13:37:37;35.20;99.90
13245;DHT22;6689;53.400;12.486;2022-08-03T13:40:18;35.20;99.90
13245;DHT22;6689;53.400;12.486;2022-08-03T13:42:59;35.30;99.90
13245;DHT22;6689;53.400;12.486;2022-08-03T13:45:28;35.40;99.90
13245;DHT22;6689;53.400;12.486;2022-08-03T13:47:57;35.50;99.90
13245;DHT22;6689;53.400;12.486;2022-08-03T13:50:42;35.50;99.90
13245;DHT22;6689;53.400;12.486;2022-08-03T13:53:22;35.50;99.90
13245;DHT22;6689;53.400;12.486;2022-08-03T13:55:57;35.50;99.90
13245;DHT22;6689;53.400;12.486;2022-08-03T13:58:32;35.50;99.90
13245;DHT22;6689;53.400;12.486;2022-08-03T14:01:07;35.60;99.90
13245;DHT22;6689;53.400;12.486;2022-08-03T14:03:48;35.60;99.90
13245;DHT22;6689;53.400;12.486;2022-08-03T14:16:05;35.40;99.90
13245;DHT22;6689;53.400;12.486;2022-08-03T14:18:46;35.30;99.90
13245;DHT22;6689;53.400;12.486;2022-08-03T14:21:27;35.00;99.90
13245;DHT22;6689;53.400;12.486;2022-08-03T14:24:00;35.00;99.90
13245;DHT22;6689;53.400;12.486;2022-08-03T14:26:41;35.00;99.90
13245;DHT22;6689;53.400;12.486;2022-08-03T14:29:12;35.00;99.90
13245;DHT22;6689;53.400;12.486;2022-08-03T14:35:07;35.10;99.90
13245;DHT22;6689;53.400;12.486;2022-08-03T14:37:48;35.10;99.90
13245;DHT22;6689;53.400;12.486;2022-08-03T14:40:29;34.90;99.90
13245;DHT22;6689;53.400;12.486;2022-08-03T14:43:10;34.80;99.90
13245;DHT22;6689;53.400;12.486;2022-08-03T14:45:51;34.80;99.90
13245;DHT22;6689;53.400;12.486;2022-08-03T14:48:20;34.80;99.90
13245;DHT22;6689;53.400;12.486;2022-08-03T14:50:53;34.80;99.90
13245;DHT22;6689;53.400;12.486;2022-08-03T14:53:24;34.80;99.90
13245;DHT22;6689;53.400;12.486;2022-08-03T14:55:53;34.90;99.90
13245;DHT22;6689;53.400;12.486;2022-08-03T14:58:34;34.80;99.90
13245;DHT22;6689;53.400;12.486;2022-08-03T15:01:15;34.70;99.90
13245;DHT22;6689;53.400;12.486;2022-08-03T15:03:56;34.50;99.90
13245;DHT22;6689;53.400;12.486;2022-08-03T15:06:54;34.40;99.90
13245;DHT22;6689;53.400;12.486;2022-08-03T15:09:26;34.40;99.90
13245;DHT22;6689;53.400;12.486;2022-08-03T15:11:54;34.60;99.90
13245;DHT22;6689;53.400;12.486;2022-08-03T15:14:23;34.60;99.90
13245;DHT22;6689;53.400;12.486;2022-08-03T15:16:52;34.70;99.90
13245;DHT22;6689;53.400;12.486;2022-08-03T15:19:20;34.70;99.90
13245;DHT22;6689;53.400;12.486;2022-08-03T15:21:50;34.70;99.90
13245;DHT22;6689;53.400;12.486;2022-08-03T15:24:47;34.50;99.90
13245;DHT22;6689;53.400;12.486;2022-08-03T15:27:28;34.30;99.90
13245;DHT22;6689;53.400;12.486;2022-08-03T15:29:59;34.20;99.90
13245;DHT22;6689;53.400;12.486;2022-08-03T15:32:31;34.10;99.90
13245;DHT22;6689;53.400;12.486;2022-08-03T15:35:15;34.10;99.90
13245;DHT22;6689;53.400;12.486;2022-08-03T15:37:55;33.90;99.90
13245;DHT22;6689;53.400;12.486;2022-08-03T15:40:29;34.00;99.90
13245;DHT22;6689;53.400;12.486;2022-08-03T15:43:04;34.00;99.90
13245;DHT22;6689;53.400;12.486;2022-08-03T15:45:44;34.10;99.90
13245;DHT22;6689;53.400;12.486;2022-08-03T15:48:25;34.10;99.90
13245;DHT22;6689;53.400;12.486;2022-08-03T15:51:09;34.20;99.90
13245;DHT22;6689;53.400;12.486;2022-08-03T15:53:50;34.20;99.90
13245;DHT22;6689;53.400;12.486;2022-08-03T15:56:38;34.20;99.90
13245;DHT22;6689;53.400;12.486;2022-08-03T15:59:10;34.20;99.90
13245;DHT22;6689;53.400;12.486;2022-08-03T16:01:50;34.10;99.90
13245;DHT22;6689;53.400;12.486;2022-08-03T16:04:32;34.00;99.90
13245;DHT22;6689;53.400;12.486;2022-08-03T16:07:16;33.90;99.90
13245;DHT22;6689;53.400;12.486;2022-08-03T16:09:57;33.90;99.90
13245;DHT22;6689;53.400;12.486;2022-08-03T16:12:25;33.90;99.90
13245;DHT22;6689;53.400;12.486;2022-08-03T16:14:53;33.90;99.90
13245;DHT22;6689;53.400;12.486;2022-08-03T16:17:34;33.80;99.90
13245;DHT22;6689;53.400;12.486;2022-08-03T16:20:15;33.80;99.90
13245;DHT22;6689;53.400;12.486;2022-08-03T16:22:56;33.80;99.90
13245;DHT22;6689;53.400;12.486;2022-08-03T16:25:37;33.60;99.90
13245;DHT22;6689;53.400;12.486;2022-08-03T16:28:19;33.60;99.90
13245;DHT22;6689;53.400;12.486;2022-08-03T16:30:49;33.60;99.90
13245;DHT22;6689;53.400;12.486;2022-08-03T16:33:35;33.60;99.90
13245;DHT22;6689;53.400;12.486;2022-08-03T16:36:05;33.60;99.90
13245;DHT22;6689;53.400;12.486;2022-08-03T16:38:36;33.60;99.90
13245;DHT22;6689;53.400;12.486;2022-08-03T16:41:04;33.50;99.90
13245;DHT22;6689;53.400;12.486;2022-08-03T16:44:05;33.40;99.90
13245;DHT22;6689;53.400;12.486;2022-08-03T16:46:39;33.40;99.90
13245;DHT22;6689;53.400;12.486;2022-08-03T16:49:20;33.40;99.90
13245;DHT22;6689;53.400;12.486;2022-08-03T16:52:01;33.40;99.90
13245;DHT22;6689;53.400;12.486;2022-08-03T16:54:42;33.40;99.90
13245;DHT22;6689;53.400;12.486;2022-08-03T16:57:26;33.40;99.90
13245;DHT22;6689;53.400;12.486;2022-08-03T17:00:23;33.40;99.90
13245;DHT22;6689;53.400;12.486;2022-08-03T17:03:04;33.40;99.90